Check out our new PWSWeather beta!
PWSweather.com
Personal Weather Stations
Station Observations
GRD01
Warsaw, LesznoPL 05-084

WarsawLesznoPL 05-084

Lat: 52.257404, Lon: 20.564847

Elevation: 298

Station Type: WH3080

http://pogoda.kampinos.waw.pl

High Low Average
Temperature 85.3°F29.6°C 66.2°F19.0°C 75.6°F24.2°C
Dew Point 67.2°F19.6°C 57.3°F14.1°C 61.2°F16.2°C
Winds 9.8 mph 15.8 kmh Calm Calm 3.0 mph SE4.8 kmh SE
Wind Gusts 15.2 mph24.5 kmh 1.6 mph2.6 kmh 6.0 mph9.7 kmh
Humidity 88% 40% 63%
Pressure 30.64 in1037.6 mb 30.52 in1033.5 mb -
Precipitation 0.00 in0.0 mm - -
Hour Temp Dew Point Humidity Winds Wind Gusts Pressure Precip Precip Rate Daily Precip Total
12:00 AM 73.2°F22.9°C 60.3°F15.7°C 64% 2.2 mph N3.5 kmh N 4.5 mph7.2 kmh 30.52 in1033.5 mb 0.00 in0.0 mm 0.00 in0.0 mm 0.00 in0.0 mm
12:05 AM 73.2°F22.9°C 60.3°F15.7°C 64% 2.2 mph NW3.5 kmh NW 3.1 mph5.0 kmh 30.08 in1018.6 mb 0.00 in0.0 mm 0.00 in0.0 mm 0.00 in0.0 mm
12:15 AM 72.9°F22.7°C 60.4°F15.8°C 65% 2.2 mph N3.5 kmh N 4.5 mph7.2 kmh 30.52 in1033.5 mb 0.00 in0.0 mm 0.00 in0.0 mm 0.00 in0.0 mm
12:30 AM 72.5°F22.5°C 60.1°F15.6°C 65% 3.1 mph N5.0 kmh N 3.8 mph6.1 kmh 30.52 in1033.5 mb 0.00 in0.0 mm 0.00 in0.0 mm 0.00 in0.0 mm
12:35 AM 72.5°F22.5°C 60.1°F15.6°C 65% 3.1 mph N5.0 kmh N 3.8 mph6.1 kmh 30.08 in1018.6 mb 0.00 in0.0 mm 0.00 in0.0 mm 0.00 in0.0 mm
12:45 AM 72.0°F22.2°C 61.6°F16.4°C 70% 1.6 mph N2.6 kmh N 3.8 mph6.1 kmh 30.53 in1033.9 mb 0.00 in0.0 mm 0.00 in0.0 mm 0.00 in0.0 mm
01:00 AM 71.4°F21.9°C 61.1°F16.2°C 70% 3.1 mph N5.0 kmh N 3.8 mph6.1 kmh 30.52 in1033.5 mb 0.00 in0.0 mm 0.00 in0.0 mm 0.00 in0.0 mm
01:05 AM 71.4°F21.9°C 61.1°F16.2°C 70% 3.1 mph N5.0 kmh N 3.8 mph6.1 kmh 30.08 in1018.6 mb 0.00 in0.0 mm 0.00 in0.0 mm 0.00 in0.0 mm
01:15 AM 70.9°F21.6°C 61.0°F16.1°C 71% 2.2 mph N3.5 kmh N 3.1 mph5.0 kmh 30.53 in1033.9 mb 0.00 in0.0 mm 0.00 in0.0 mm 0.00 in0.0 mm
01:30 AM 70.7°F21.5°C 60.8°F16.0°C 71% 2.2 mph N3.5 kmh N 3.8 mph6.1 kmh 30.53 in1033.9 mb 0.00 in0.0 mm 0.00 in0.0 mm 0.00 in0.0 mm
01:35 AM 70.7°F21.5°C 60.8°F16.0°C 71% 2.2 mph N3.5 kmh N 3.1 mph5.0 kmh 30.09 in1019.0 mb 0.00 in0.0 mm 0.00 in0.0 mm 0.00 in0.0 mm
01:45 AM 70.5°F21.4°C 60.7°F15.9°C 71% 2.2 mph N3.5 kmh N 3.8 mph6.1 kmh 30.53 in1033.9 mb 0.00 in0.0 mm 0.00 in0.0 mm 0.00 in0.0 mm
02:00 AM 70.2°F21.2°C 60.3°F15.7°C 71% 3.1 mph NW5.0 kmh NW 3.8 mph6.1 kmh 30.53 in1033.9 mb 0.00 in0.0 mm 0.00 in0.0 mm 0.00 in0.0 mm
02:05 AM 70.2°F21.2°C 60.3°F15.7°C 71% 3.1 mph NW5.0 kmh NW 3.8 mph6.1 kmh 30.09 in1019.0 mb 0.00 in0.0 mm 0.00 in0.0 mm 0.00 in0.0 mm
02:15 AM 69.6°F20.9°C 60.2°F15.7°C 72% 3.8 mph NNW6.1 kmh NNW 4.5 mph7.2 kmh 30.54 in1034.2 mb 0.00 in0.0 mm 0.00 in0.0 mm 0.00 in0.0 mm
02:30 AM 69.3°F20.7°C 59.8°F15.4°C 72% 2.2 mph N3.5 kmh N 4.5 mph7.2 kmh 30.53 in1033.9 mb 0.00 in0.0 mm 0.00 in0.0 mm 0.00 in0.0 mm
02:35 AM 69.3°F20.7°C 59.8°F15.4°C 72% 2.2 mph N3.5 kmh N 3.1 mph5.0 kmh 30.09 in1019.0 mb 0.00 in0.0 mm 0.00 in0.0 mm 0.00 in0.0 mm
02:45 AM 68.9°F20.5°C 59.9°F15.5°C 73% 1.6 mph N2.6 kmh N 3.1 mph5.0 kmh 30.53 in1033.9 mb 0.00 in0.0 mm 0.00 in0.0 mm 0.00 in0.0 mm
03:00 AM 68.7°F20.4°C 59.7°F15.4°C 73% 3.1 mph N5.0 kmh N 3.8 mph6.1 kmh 30.54 in1034.2 mb 0.00 in0.0 mm 0.00 in0.0 mm 0.00 in0.0 mm
03:05 AM 68.7°F20.4°C 59.7°F15.4°C 73% 2.2 mph N3.5 kmh N 3.1 mph5.0 kmh 30.09 in1019.0 mb 0.00 in0.0 mm 0.00 in0.0 mm 0.00 in0.0 mm
03:15 AM 68.4°F20.2°C 59.7°F15.4°C 74% 0.7 mph NW1.1 kmh NW 4.5 mph7.2 kmh 30.54 in1034.2 mb 0.00 in0.0 mm 0.00 in0.0 mm 0.00 in0.0 mm
03:30 AM 68.2°F20.1°C 60.0°F15.6°C 75% Calm Calm 1.6 mph2.6 kmh 30.54 in1034.2 mb 0.00 in0.0 mm 0.00 in0.0 mm 0.00 in0.0 mm
03:35 AM 68.2°F20.1°C 60.0°F15.6°C 75% 0.7 mph N1.1 kmh N 1.6 mph2.6 kmh 30.10 in1019.3 mb 0.00 in0.0 mm 0.00 in0.0 mm 0.00 in0.0 mm
03:45 AM 68.0°F20.0°C 60.2°F15.7°C 76% 0.7 mph NNW1.1 kmh NNW 3.8 mph6.1 kmh 30.55 in1034.5 mb 0.00 in0.0 mm 0.00 in0.0 mm 0.00 in0.0 mm
04:00 AM 67.8°F19.9°C 60.7°F15.9°C 78% 1.6 mph S2.6 kmh S 3.1 mph5.0 kmh 30.55 in1034.5 mb 0.00 in0.0 mm 0.00 in0.0 mm 0.00 in0.0 mm
04:05 AM 67.8°F19.9°C 60.7°F15.9°C 78% 0.7 mph S1.1 kmh S 1.6 mph2.6 kmh 30.11 in1019.6 mb 0.00 in0.0 mm 0.00 in0.0 mm 0.00 in0.0 mm
04:15 AM 67.5°F19.7°C 61.1°F16.2°C 80% 1.6 mph S2.6 kmh S 3.1 mph5.0 kmh 30.55 in1034.5 mb 0.00 in0.0 mm 0.00 in0.0 mm 0.00 in0.0 mm
04:30 AM 67.3°F19.6°C 61.2°F16.2°C 81% 1.6 mph SW2.6 kmh SW 3.1 mph5.0 kmh 30.56 in1034.9 mb 0.00 in0.0 mm 0.00 in0.0 mm 0.00 in0.0 mm
04:35 AM 67.5°F19.7°C 61.4°F16.3°C 81% 0.7 mph SW1.1 kmh SW 1.6 mph2.6 kmh 30.12 in1020.0 mb 0.00 in0.0 mm 0.00 in0.0 mm 0.00 in0.0 mm
04:45 AM 66.7°F19.3°C 61.1°F16.2°C 82% 2.2 mph NNW3.5 kmh NNW 5.4 mph8.7 kmh 30.58 in1035.6 mb 0.00 in0.0 mm 0.00 in0.0 mm 0.00 in0.0 mm
05:00 AM 66.4°F19.1°C 60.7°F15.9°C 82% 1.6 mph N2.6 kmh N 3.1 mph5.0 kmh 30.58 in1035.6 mb 0.00 in0.0 mm 0.00 in0.0 mm 0.00 in0.0 mm
05:05 AM 66.4°F19.1°C 60.7°F15.9°C 82% 2.2 mph N3.5 kmh N 3.1 mph5.0 kmh 30.13 in1020.3 mb 0.00 in0.0 mm 0.00 in0.0 mm 0.00 in0.0 mm
05:15 AM 66.4°F19.1°C 61.1°F16.2°C 83% 2.2 mph N3.5 kmh N 3.8 mph6.1 kmh 30.59 in1035.9 mb 0.00 in0.0 mm 0.00 in0.0 mm 0.00 in0.0 mm
05:30 AM 66.2°F19.0°C 61.2°F16.2°C 84% 3.1 mph N5.0 kmh N 3.8 mph6.1 kmh 30.59 in1035.9 mb 0.00 in0.0 mm 0.00 in0.0 mm 0.00 in0.0 mm
05:35 AM 66.2°F19.0°C 61.2°F16.2°C 84% 2.2 mph N3.5 kmh N 3.1 mph5.0 kmh 30.14 in1020.7 mb 0.00 in0.0 mm 0.00 in0.0 mm 0.00 in0.0 mm
05:45 AM 66.2°F19.0°C 61.9°F16.6°C 86% 2.2 mph N3.5 kmh N 4.5 mph7.2 kmh 30.59 in1035.9 mb 0.00 in0.0 mm 0.00 in0.0 mm 0.00 in0.0 mm
06:00 AM 66.4°F19.1°C 62.1°F16.7°C 86% 2.2 mph N3.5 kmh N 3.8 mph6.1 kmh 30.59 in1035.9 mb 0.00 in0.0 mm 0.00 in0.0 mm 0.00 in0.0 mm
06:05 AM 66.4°F19.1°C 62.1°F16.7°C 86% 3.1 mph N5.0 kmh N 3.8 mph6.1 kmh 30.15 in1021.0 mb 0.00 in0.0 mm 0.00 in0.0 mm 0.00 in0.0 mm
06:15 AM 66.7°F19.3°C 62.7°F17.1°C 87% 2.2 mph N3.5 kmh N 3.1 mph5.0 kmh 30.59 in1035.9 mb 0.00 in0.0 mm 0.00 in0.0 mm 0.00 in0.0 mm
06:30 AM 67.8°F19.9°C 64.1°F17.8°C 88% 3.8 mph N6.1 kmh N 5.4 mph8.7 kmh 30.59 in1035.9 mb 0.00 in0.0 mm 0.00 in0.0 mm 0.00 in0.0 mm
06:35 AM 67.6°F19.8°C 63.6°F17.6°C 87% 3.1 mph NE5.0 kmh NE 4.5 mph7.2 kmh 30.15 in1021.0 mb 0.00 in0.0 mm 0.00 in0.0 mm 0.00 in0.0 mm
06:45 AM 68.9°F20.5°C 64.9°F18.3°C 87% 4.5 mph NNE7.2 kmh NNE 6.9 mph11.1 kmh 30.60 in1036.2 mb 0.00 in0.0 mm 0.00 in0.0 mm 0.00 in0.0 mm
07:00 AM 69.3°F20.7°C 64.9°F18.3°C 86% 4.5 mph N7.2 kmh N 7.6 mph12.2 kmh 30.60 in1036.2 mb 0.00 in0.0 mm 0.00 in0.0 mm 0.00 in0.0 mm
07:05 AM 69.3°F20.7°C 64.9°F18.3°C 86% 4.5 mph N7.2 kmh N 6.9 mph11.1 kmh 30.15 in1021.0 mb 0.00 in0.0 mm 0.00 in0.0 mm 0.00 in0.0 mm
07:15 AM 70.3°F21.3°C 65.3°F18.5°C 84% 6.9 mph NNE11.1 kmh NNE 10.7 mph17.2 kmh 30.60 in1036.2 mb 0.00 in0.0 mm 0.00 in0.0 mm 0.00 in0.0 mm
07:30 AM 71.4°F21.9°C 65.6°F18.7°C 82% 8.3 mph NNE13.4 kmh NNE 14.5 mph23.3 kmh 30.60 in1036.2 mb 0.00 in0.0 mm 0.00 in0.0 mm 0.00 in0.0 mm
07:35 AM 71.2°F21.8°C 65.8°F18.8°C 83% 11.4 mph N18.3 kmh N 14.5 mph23.3 kmh 30.16 in1021.3 mb 0.00 in0.0 mm 0.00 in0.0 mm 0.00 in0.0 mm
07:45 AM 72.3°F22.4°C 66.2°F19.0°C 81% 6.0 mph NNE9.7 kmh NNE 11.4 mph18.3 kmh 30.61 in1036.6 mb 0.00 in0.0 mm 0.00 in0.0 mm 0.00 in0.0 mm
08:00 AM 73.8°F23.2°C 66.1°F18.9°C 77% 5.4 mph NNE8.7 kmh NNE 8.3 mph13.4 kmh 30.61 in1036.6 mb 0.00 in0.0 mm 0.00 in0.0 mm 0.00 in0.0 mm
08:05 AM 73.4°F23.0°C 65.7°F18.7°C 77% 6.0 mph NE9.7 kmh NE 8.3 mph13.4 kmh 30.16 in1021.3 mb 0.00 in0.0 mm 0.00 in0.0 mm 0.00 in0.0 mm
08:15 AM 74.7°F23.7°C 65.8°F18.8°C 74% 4.5 mph NNE7.2 kmh NNE 8.3 mph13.4 kmh 30.62 in1036.9 mb 0.00 in0.0 mm 0.00 in0.0 mm 0.00 in0.0 mm
08:30 AM 75.6°F24.2°C 65.9°F18.8°C 72% 5.4 mph NNE8.7 kmh NNE 10.7 mph17.2 kmh 30.61 in1036.6 mb 0.00 in0.0 mm 0.00 in0.0 mm 0.00 in0.0 mm
08:35 AM 75.4°F24.1°C 65.7°F18.7°C 72% 4.5 mph N7.2 kmh N 6.0 mph9.7 kmh 30.17 in1021.7 mb 0.00 in0.0 mm 0.00 in0.0 mm 0.00 in0.0 mm
08:45 AM 76.6°F24.8°C 66.5°F19.2°C 71% 5.4 mph N8.7 kmh N 9.8 mph15.8 kmh 30.62 in1036.9 mb 0.00 in0.0 mm 0.00 in0.0 mm 0.00 in0.0 mm
09:00 AM 77.5°F25.3°C 66.1°F18.9°C 68% 5.4 mph NE8.7 kmh NE 7.6 mph12.2 kmh 30.62 in1036.9 mb 0.00 in0.0 mm 0.00 in0.0 mm 0.00 in0.0 mm
09:05 AM 77.4°F25.2°C 66.4°F19.1°C 69% 5.4 mph E8.7 kmh E 6.9 mph11.1 kmh 30.19 in1022.4 mb 0.00 in0.0 mm 0.00 in0.0 mm 0.00 in0.0 mm
09:15 AM 78.6°F25.9°C 67.2°F19.6°C 68% 4.5 mph NNE7.2 kmh NNE 9.2 mph14.8 kmh 30.62 in1036.9 mb 0.00 in0.0 mm 0.00 in0.0 mm 0.00 in0.0 mm
09:30 AM 79.3°F26.3°C 67.0°F19.4°C 66% 3.1 mph NE5.0 kmh NE 8.3 mph13.4 kmh 30.63 in1037.3 mb 0.00 in0.0 mm 0.00 in0.0 mm 0.00 in0.0 mm
09:35 AM 79.3°F26.3°C 67.0°F19.4°C 66% 5.4 mph N8.7 kmh N 8.3 mph13.4 kmh 30.18 in1022.0 mb 0.00 in0.0 mm 0.00 in0.0 mm 0.00 in0.0 mm
09:45 AM 80.8°F27.1°C 67.0°F19.4°C 63% 4.5 mph NNE7.2 kmh NNE 8.3 mph13.4 kmh 30.62 in1036.9 mb 0.00 in0.0 mm 0.00 in0.0 mm 0.00 in0.0 mm
10:00 AM 81.0°F27.2°C 67.2°F19.6°C 63% 5.4 mph NE8.7 kmh NE 6.9 mph11.1 kmh 30.62 in1036.9 mb 0.00 in0.0 mm 0.00 in0.0 mm 0.00 in0.0 mm
10:05 AM 80.6°F27.0°C 67.3°F19.6°C 64% 4.5 mph NE7.2 kmh NE 6.0 mph9.7 kmh 30.18 in1022.0 mb 0.00 in0.0 mm 0.00 in0.0 mm 0.00 in0.0 mm
10:15 AM 81.9°F27.7°C 66.1°F18.9°C 59% Calm Calm 6.9 mph11.1 kmh 30.63 in1037.3 mb 0.00 in0.0 mm 0.00 in0.0 mm 0.00 in0.0 mm
10:30 AM 82.8°F28.2°C 66.5°F19.2°C 58% 2.2 mph NNE3.5 kmh NNE 6.0 mph9.7 kmh 30.63 in1037.3 mb 0.00 in0.0 mm 0.00 in0.0 mm 0.00 in0.0 mm
10:35 AM 82.6°F28.1°C 66.3°F19.1°C 58% 2.2 mph S3.5 kmh S 3.8 mph6.1 kmh 30.18 in1022.0 mb 0.00 in0.0 mm 0.00 in0.0 mm 0.00 in0.0 mm
10:45 AM 83.3°F28.5°C 64.9°F18.3°C 54% 6.0 mph N9.7 kmh N 9.2 mph14.8 kmh 30.63 in1037.3 mb 0.00 in0.0 mm 0.00 in0.0 mm 0.00 in0.0 mm
11:00 AM 82.8°F28.2°C 63.9°F17.7°C 53% 2.2 mph NE3.5 kmh NE 6.9 mph11.1 kmh 30.63 in1037.3 mb 0.00 in0.0 mm 0.00 in0.0 mm 0.00 in0.0 mm
11:05 AM 82.8°F28.2°C 63.9°F17.7°C 53% 1.6 mph NE2.6 kmh NE 2.2 mph3.5 kmh 30.19 in1022.4 mb 0.00 in0.0 mm 0.00 in0.0 mm 0.00 in0.0 mm
11:15 AM 83.8°F28.8°C 63.8°F17.7°C 51% 6.0 mph E9.7 kmh E 7.6 mph12.2 kmh 30.63 in1037.3 mb 0.00 in0.0 mm 0.00 in0.0 mm 0.00 in0.0 mm
11:30 AM 84.4°F29.1°C 64.3°F17.9°C 51% 1.6 mph ENE2.6 kmh ENE 6.0 mph9.7 kmh 30.63 in1037.3 mb 0.00 in0.0 mm 0.00 in0.0 mm 0.00 in0.0 mm
11:35 AM 84.2°F29.0°C 64.1°F17.8°C 51% 2.2 mph SE3.5 kmh SE 3.8 mph6.1 kmh 30.19 in1022.4 mb 0.00 in0.0 mm 0.00 in0.0 mm 0.00 in0.0 mm
11:45 AM 83.7°F28.7°C 63.0°F17.2°C 50% 3.8 mph NNE6.1 kmh NNE 6.0 mph9.7 kmh 30.63 in1037.3 mb 0.00 in0.0 mm 0.00 in0.0 mm 0.00 in0.0 mm
12:00 PM 83.7°F28.7°C 63.0°F17.2°C 50% 3.1 mph ESE5.0 kmh ESE 6.0 mph9.7 kmh 30.62 in1036.9 mb 0.00 in0.0 mm 0.00 in0.0 mm 0.00 in0.0 mm
12:05 PM 83.3°F28.5°C 62.7°F17.1°C 50% 1.6 mph S2.6 kmh S 2.2 mph3.5 kmh 30.18 in1022.0 mb 0.00 in0.0 mm 0.00 in0.0 mm 0.00 in0.0 mm
12:15 PM 84.9°F29.4°C 63.6°F17.6°C 49% 1.6 mph S2.6 kmh S 4.5 mph7.2 kmh 30.63 in1037.3 mb 0.00 in0.0 mm 0.00 in0.0 mm 0.00 in0.0 mm
12:30 PM 84.2°F29.0°C 61.2°F16.2°C 46% 1.6 mph NE2.6 kmh NE 9.2 mph14.8 kmh 30.62 in1036.9 mb 0.00 in0.0 mm 0.00 in0.0 mm 0.00 in0.0 mm
12:35 PM 84.2°F29.0°C 61.2°F16.2°C 46% 3.8 mph N6.1 kmh N 5.4 mph8.7 kmh 30.18 in1022.0 mb 0.00 in0.0 mm 0.00 in0.0 mm 0.00 in0.0 mm
12:45 PM 84.4°F29.1°C 58.8°F14.9°C 42% 1.6 mph NE2.6 kmh NE 9.2 mph14.8 kmh 30.62 in1036.9 mb 0.00 in0.0 mm 0.00 in0.0 mm 0.00 in0.0 mm
01:00 PM 84.2°F29.0°C 61.2°F16.2°C 46% 6.9 mph N11.1 kmh N 8.3 mph13.4 kmh 30.61 in1036.6 mb 0.00 in0.0 mm 0.00 in0.0 mm 0.00 in0.0 mm
01:05 PM 84.2°F29.0°C 61.2°F16.2°C 46% 6.9 mph N11.1 kmh N 8.3 mph13.4 kmh 30.18 in1022.0 mb 0.00 in0.0 mm 0.00 in0.0 mm 0.00 in0.0 mm
01:15 PM 82.9°F28.3°C 61.2°F16.2°C 48% 4.5 mph N7.2 kmh N 8.3 mph13.4 kmh 30.62 in1036.9 mb 0.00 in0.0 mm 0.00 in0.0 mm 0.00 in0.0 mm
01:30 PM 83.5°F28.6°C 60.5°F15.8°C 46% 3.8 mph N6.1 kmh N 5.4 mph8.7 kmh 30.61 in1036.6 mb 0.00 in0.0 mm 0.00 in0.0 mm 0.00 in0.0 mm
01:35 PM 83.3°F28.5°C 60.4°F15.8°C 46% 3.1 mph N5.0 kmh N 3.8 mph6.1 kmh 30.17 in1021.7 mb 0.00 in0.0 mm 0.00 in0.0 mm 0.00 in0.0 mm
01:45 PM 84.7°F29.3°C 59.8°F15.4°C 43% 9.8 mph N15.8 kmh N 11.4 mph18.3 kmh 30.61 in1036.6 mb 0.00 in0.0 mm 0.00 in0.0 mm 0.00 in0.0 mm
02:00 PM 84.6°F29.2°C 58.9°F14.9°C 42% 6.0 mph N9.7 kmh N 11.4 mph18.3 kmh 30.61 in1036.6 mb 0.00 in0.0 mm 0.00 in0.0 mm 0.00 in0.0 mm
02:05 PM 84.7°F29.3°C 59.1°F15.1°C 42% 9.8 mph NW15.8 kmh NW 11.4 mph18.3 kmh 30.16 in1021.3 mb 0.00 in0.0 mm 0.00 in0.0 mm 0.00 in0.0 mm
02:15 PM 84.4°F29.1°C 58.8°F14.9°C 42% 3.8 mph NE6.1 kmh NE 8.3 mph13.4 kmh 30.61 in1036.6 mb 0.00 in0.0 mm 0.00 in0.0 mm 0.00 in0.0 mm
02:30 PM 85.3°F29.6°C 58.9°F14.9°C 41% 4.5 mph NE7.2 kmh NE 7.6 mph12.2 kmh 30.60 in1036.2 mb 0.00 in0.0 mm 0.00 in0.0 mm 0.00 in0.0 mm
02:35 PM 85.1°F29.5°C 58.8°F14.9°C 41% 3.1 mph NE5.0 kmh NE 4.5 mph7.2 kmh 30.16 in1021.3 mb 0.00 in0.0 mm 0.00 in0.0 mm 0.00 in0.0 mm
02:45 PM 85.1°F29.5°C 58.1°F14.5°C 40% 2.2 mph NE3.5 kmh NE 13.0 mph20.9 kmh 30.59 in1035.9 mb 0.00 in0.0 mm 0.00 in0.0 mm 0.00 in0.0 mm
03:00 PM 84.4°F29.1°C 58.1°F14.5°C 41% 5.4 mph N8.7 kmh N 8.3 mph13.4 kmh 30.60 in1036.2 mb 0.00 in0.0 mm 0.00 in0.0 mm 0.00 in0.0 mm
03:05 PM 84.4°F29.1°C 58.1°F14.5°C 41% 6.0 mph N9.7 kmh N 7.6 mph12.2 kmh 30.16 in1021.3 mb 0.00 in0.0 mm 0.00 in0.0 mm 0.00 in0.0 mm
03:15 PM 84.0°F28.9°C 57.8°F14.3°C 41% 4.5 mph N7.2 kmh N 7.6 mph12.2 kmh 30.59 in1035.9 mb 0.00 in0.0 mm 0.00 in0.0 mm 0.00 in0.0 mm
03:30 PM 84.2°F29.0°C 58.6°F14.8°C 42% 3.8 mph N6.1 kmh N 6.9 mph11.1 kmh 30.60 in1036.2 mb 0.00 in0.0 mm 0.00 in0.0 mm 0.00 in0.0 mm
03:35 PM 84.2°F29.0°C 58.6°F14.8°C 42% 5.4 mph N8.7 kmh N 6.0 mph9.7 kmh 30.16 in1021.3 mb 0.00 in0.0 mm 0.00 in0.0 mm 0.00 in0.0 mm
03:45 PM 85.3°F29.6°C 58.9°F14.9°C 41% 6.9 mph NNE11.1 kmh NNE 9.8 mph15.8 kmh 30.60 in1036.2 mb 0.00 in0.0 mm 0.00 in0.0 mm 0.00 in0.0 mm
04:00 PM 84.9°F29.4°C 58.6°F14.8°C 41% 7.6 mph NNE12.2 kmh NNE 15.2 mph24.5 kmh 30.60 in1036.2 mb 0.00 in0.0 mm 0.00 in0.0 mm 0.00 in0.0 mm
04:05 PM 84.9°F29.4°C 58.6°F14.8°C 41% 7.6 mph NE12.2 kmh NE 10.7 mph17.2 kmh 30.16 in1021.3 mb 0.00 in0.0 mm 0.00 in0.0 mm 0.00 in0.0 mm
04:15 PM 84.2°F29.0°C 57.9°F14.4°C 41% 5.4 mph NE8.7 kmh NE 8.3 mph13.4 kmh 30.60 in1036.2 mb 0.00 in0.0 mm 0.00 in0.0 mm 0.00 in0.0 mm
04:30 PM 84.2°F29.0°C 57.9°F14.4°C 41% 7.6 mph NNE12.2 kmh NNE 10.7 mph17.2 kmh 30.60 in1036.2 mb 0.00 in0.0 mm 0.00 in0.0 mm 0.00 in0.0 mm
04:35 PM 84.2°F29.0°C 57.9°F14.4°C 41% 6.9 mph NW11.1 kmh NW 7.6 mph12.2 kmh 30.16 in1021.3 mb 0.00 in0.0 mm 0.00 in0.0 mm 0.00 in0.0 mm
04:45 PM 84.0°F28.9°C 57.8°F14.3°C 41% 3.1 mph N5.0 kmh N 13.0 mph20.9 kmh 30.60 in1036.2 mb 0.00 in0.0 mm 0.00 in0.0 mm 0.00 in0.0 mm
05:00 PM 82.9°F28.3°C 57.5°F14.2°C 42% 3.1 mph NNE5.0 kmh NNE 8.3 mph13.4 kmh 30.60 in1036.2 mb 0.00 in0.0 mm 0.00 in0.0 mm 0.00 in0.0 mm
05:05 PM 83.1°F28.4°C 57.6°F14.2°C 42% 5.4 mph N8.7 kmh N 6.0 mph9.7 kmh 30.15 in1021.0 mb 0.00 in0.0 mm 0.00 in0.0 mm 0.00 in0.0 mm
05:15 PM 82.0°F27.8°C 57.3°F14.1°C 43% 3.1 mph N5.0 kmh N 6.0 mph9.7 kmh 30.60 in1036.2 mb 0.00 in0.0 mm 0.00 in0.0 mm 0.00 in0.0 mm
05:30 PM 81.1°F27.3°C 60.7°F15.9°C 50% 1.6 mph NE2.6 kmh NE 3.1 mph5.0 kmh 30.60 in1036.2 mb 0.00 in0.0 mm 0.00 in0.0 mm 0.00 in0.0 mm
05:35 PM 81.1°F27.3°C 60.2°F15.7°C 49% 2.2 mph NE3.5 kmh NE 3.1 mph5.0 kmh 30.15 in1021.0 mb 0.00 in0.0 mm 0.00 in0.0 mm 0.00 in0.0 mm
05:45 PM 80.4°F26.9°C 60.6°F15.9°C 51% 2.2 mph N3.5 kmh N 3.8 mph6.1 kmh 30.61 in1036.6 mb 0.00 in0.0 mm 0.00 in0.0 mm 0.00 in0.0 mm
06:00 PM 79.7°F26.5°C 60.5°F15.8°C 52% 1.6 mph N2.6 kmh N 3.8 mph6.1 kmh 30.61 in1036.6 mb 0.00 in0.0 mm 0.00 in0.0 mm 0.00 in0.0 mm
06:05 PM 79.9°F26.6°C 60.7°F15.9°C 52% 1.6 mph N2.6 kmh N 2.2 mph3.5 kmh 30.16 in1021.3 mb 0.00 in0.0 mm 0.00 in0.0 mm 0.00 in0.0 mm
06:15 PM 79.0°F26.1°C 60.9°F16.1°C 54% 1.6 mph N2.6 kmh N 2.2 mph3.5 kmh 30.61 in1036.6 mb 0.00 in0.0 mm 0.00 in0.0 mm 0.00 in0.0 mm
06:30 PM 78.4°F25.8°C 59.9°F15.5°C 53% 3.1 mph N5.0 kmh N 6.0 mph9.7 kmh 30.62 in1036.9 mb 0.00 in0.0 mm 0.00 in0.0 mm 0.00 in0.0 mm
06:35 PM 78.4°F25.8°C 59.9°F15.5°C 53% 3.1 mph N5.0 kmh N 3.8 mph6.1 kmh 30.17 in1021.7 mb 0.00 in0.0 mm 0.00 in0.0 mm 0.00 in0.0 mm
06:45 PM 77.7°F25.4°C 59.2°F15.1°C 53% 0.7 mph NE1.1 kmh NE 3.1 mph5.0 kmh 30.62 in1036.9 mb 0.00 in0.0 mm 0.00 in0.0 mm 0.00 in0.0 mm
07:00 PM 77.2°F25.1°C 59.2°F15.1°C 54% 0.7 mph NE1.1 kmh NE 1.6 mph2.6 kmh 30.63 in1037.3 mb 0.00 in0.0 mm 0.00 in0.0 mm 0.00 in0.0 mm
07:05 PM 77.2°F25.1°C 59.2°F15.1°C 54% 0.7 mph NE1.1 kmh NE 1.6 mph2.6 kmh 30.18 in1022.0 mb 0.00 in0.0 mm 0.00 in0.0 mm 0.00 in0.0 mm
07:15 PM 75.6°F24.2°C 59.3°F15.2°C 57% 0.7 mph NE1.1 kmh NE 1.6 mph2.6 kmh 30.62 in1036.9 mb 0.00 in0.0 mm 0.00 in0.0 mm 0.00 in0.0 mm
07:30 PM 74.3°F23.5°C 59.5°F15.3°C 60% 1.6 mph N2.6 kmh N 3.1 mph5.0 kmh 30.64 in1037.6 mb 0.00 in0.0 mm 0.00 in0.0 mm 0.00 in0.0 mm
07:35 PM 74.5°F23.6°C 59.7°F15.4°C 60% 1.6 mph N2.6 kmh N 2.2 mph3.5 kmh 30.19 in1022.4 mb 0.00 in0.0 mm 0.00 in0.0 mm 0.00 in0.0 mm
07:45 PM 73.2°F22.9°C 59.0°F15.0°C 61% 0.7 mph N1.1 kmh N 2.2 mph3.5 kmh 30.64 in1037.6 mb 0.00 in0.0 mm 0.00 in0.0 mm 0.00 in0.0 mm
08:00 PM 72.1°F22.3°C 60.2°F15.7°C 66% 2.2 mph N3.5 kmh N 3.1 mph5.0 kmh 30.64 in1037.6 mb 0.00 in0.0 mm 0.00 in0.0 mm 0.00 in0.0 mm
08:05 PM 72.3°F22.4°C 60.3°F15.7°C 66% 2.2 mph N3.5 kmh N 3.1 mph5.0 kmh 30.19 in1022.4 mb 0.00 in0.0 mm 0.00 in0.0 mm 0.00 in0.0 mm
08:15 PM 71.4°F21.9°C 60.3°F15.7°C 68% 2.2 mph N3.5 kmh N 3.1 mph5.0 kmh 30.64 in1037.6 mb 0.00 in0.0 mm 0.00 in0.0 mm 0.00 in0.0 mm
08:30 PM 71.2°F21.8°C 59.7°F15.4°C 67% 3.1 mph N5.0 kmh N 3.8 mph6.1 kmh 30.63 in1037.3 mb 0.00 in0.0 mm 0.00 in0.0 mm 0.00 in0.0 mm
08:35 PM 71.4°F21.9°C 59.9°F15.5°C 67% 3.1 mph N5.0 kmh N 3.8 mph6.1 kmh 30.19 in1022.4 mb 0.00 in0.0 mm 0.00 in0.0 mm 0.00 in0.0 mm
08:45 PM 71.1°F21.7°C 59.5°F15.3°C 67% 3.1 mph N5.0 kmh N 6.0 mph9.7 kmh 30.63 in1037.3 mb 0.00 in0.0 mm 0.00 in0.0 mm 0.00 in0.0 mm
09:00 PM 72.0°F22.2°C 59.6°F15.3°C 65% 4.5 mph N7.2 kmh N 6.9 mph11.1 kmh 30.63 in1037.3 mb 0.00 in0.0 mm 0.00 in0.0 mm 0.00 in0.0 mm
09:05 PM 71.8°F22.1°C 59.4°F15.2°C 65% 4.5 mph N7.2 kmh N 5.4 mph8.7 kmh 30.19 in1022.4 mb 0.00 in0.0 mm 0.00 in0.0 mm 0.00 in0.0 mm
09:15 PM 72.3°F22.4°C 59.5°F15.3°C 64% 5.4 mph N8.7 kmh N 6.9 mph11.1 kmh 30.64 in1037.6 mb 0.00 in0.0 mm 0.00 in0.0 mm 0.00 in0.0 mm
09:30 PM 72.0°F22.2°C 59.1°F15.1°C 64% 3.1 mph N5.0 kmh N 6.0 mph9.7 kmh 30.63 in1037.3 mb 0.00 in0.0 mm 0.00 in0.0 mm 0.00 in0.0 mm
09:35 PM 72.0°F22.2°C 59.1°F15.1°C 64% 3.1 mph N5.0 kmh N 4.5 mph7.2 kmh 30.19 in1022.4 mb 0.00 in0.0 mm 0.00 in0.0 mm 0.00 in0.0 mm
09:45 PM 71.8°F22.1°C 59.4°F15.2°C 65% 6.9 mph N11.1 kmh N 9.2 mph14.8 kmh 30.64 in1037.6 mb 0.00 in0.0 mm 0.00 in0.0 mm 0.00 in0.0 mm
10:00 PM 71.6°F22.0°C 59.2°F15.1°C 65% 6.9 mph N11.1 kmh N 9.2 mph14.8 kmh 30.63 in1037.3 mb 0.00 in0.0 mm 0.00 in0.0 mm 0.00 in0.0 mm
10:05 PM 71.6°F22.0°C 59.2°F15.1°C 65% 6.0 mph NE9.7 kmh NE 6.9 mph11.1 kmh 30.19 in1022.4 mb 0.00 in0.0 mm 0.00 in0.0 mm 0.00 in0.0 mm
10:15 PM 71.2°F21.8°C 58.9°F14.9°C 65% 2.2 mph N3.5 kmh N 7.6 mph12.2 kmh 30.63 in1037.3 mb 0.00 in0.0 mm 0.00 in0.0 mm 0.00 in0.0 mm
10:30 PM 70.9°F21.6°C 59.0°F15.0°C 66% 3.1 mph NNE5.0 kmh NNE 6.0 mph9.7 kmh 30.64 in1037.6 mb 0.00 in0.0 mm 0.00 in0.0 mm 0.00 in0.0 mm
10:35 PM 70.9°F21.6°C 59.0°F15.0°C 66% 3.1 mph N5.0 kmh N 4.5 mph7.2 kmh 30.20 in1022.7 mb 0.00 in0.0 mm 0.00 in0.0 mm 0.00 in0.0 mm
10:45 PM 70.5°F21.4°C 58.6°F14.8°C 66% 3.8 mph NE6.1 kmh NE 6.9 mph11.1 kmh 30.64 in1037.6 mb 0.00 in0.0 mm 0.00 in0.0 mm 0.00 in0.0 mm
11:00 PM 70.3°F21.3°C 58.9°F14.9°C 67% 3.1 mph NE5.0 kmh NE 6.0 mph9.7 kmh 30.64 in1037.6 mb 0.00 in0.0 mm 0.00 in0.0 mm 0.00 in0.0 mm
11:05 PM 70.3°F21.3°C 58.9°F14.9°C 67% 3.1 mph NE5.0 kmh NE 4.5 mph7.2 kmh 30.20 in1022.7 mb 0.00 in0.0 mm 0.00 in0.0 mm 0.00 in0.0 mm
11:15 PM 70.3°F21.3°C 58.9°F14.9°C 67% 3.1 mph NE5.0 kmh NE 7.6 mph12.2 kmh 30.64 in1037.6 mb 0.00 in0.0 mm 0.00 in0.0 mm 0.00 in0.0 mm
11:30 PM 70.0°F21.1°C 58.9°F14.9°C 68% 5.4 mph NE8.7 kmh NE 7.6 mph12.2 kmh 30.64 in1037.6 mb 0.00 in0.0 mm 0.00 in0.0 mm 0.00 in0.0 mm
11:35 PM 70.0°F21.1°C 58.9°F14.9°C 68% 3.8 mph N6.1 kmh N 5.4 mph8.7 kmh 30.19 in1022.4 mb 0.00 in0.0 mm 0.00 in0.0 mm 0.00 in0.0 mm
11:45 PM 69.8°F21.0°C 58.8°F14.9°C 68% 3.8 mph NNE6.1 kmh NNE 7.6 mph12.2 kmh 30.64 in1037.6 mb 0.00 in0.0 mm 0.00 in0.0 mm 0.00 in0.0 mm